Time;durP1;ratioP1;P1;durP2;ratioP2;P2;SDS_P1;SDS_P2;PMS_P1;PMS_P2;Temp;Humidity;BMP_temperature;BMP_pressure;BME280_temperature;BME280_humidity;BME280_pressure;Samples;Min_cycle;Max_cycle;Signal;HPM_P1;HPM_P2
2023/08/22 00:04:48;;;;;;;11.10;6.05;;;;;;;;;;10256536;28;20060;-67
2023/08/22 00:09:44;;;;;;;7.50;6.05;;;;;;;;;;10253091;28;20609;-67
2023/08/22 00:14:40;;;;;;;7.20;6.15;;;;;;;;;;10252025;28;20048;-67
2023/08/22 00:19:38;;;;;;;7.22;5.90;;;;;;;;;;10253047;28;20107;-66
2023/08/22 00:24:35;;;;;;;6.45;5.72;;;;;;;;;;10261392;28;20045;-66
2023/08/22 00:29:31;;;;;;;7.40;6.20;;;;;;;;;;10261582;28;20854;-66
2023/08/22 00:34:28;;;;;;;7.30;5.82;;;;;;;;;;10263073;28;20049;-66
2023/08/22 00:39:24;;;;;;;6.50;5.80;;;;;;;;;;10270691;28;20554;-66
2023/08/22 00:44:21;;;;;;;5.97;5.38;;;;;;;;;;10266033;28;20057;-66
2023/08/22 00:49:17;;;;;;;8.30;6.13;;;;;;;;;;10270665;28;20156;-67
2023/08/22 00:54:14;;;;;;;7.72;5.88;;;;;;;;;;10261287;28;20046;-65
2023/08/22 00:59:11;;;;;;;6.68;5.45;;;;;;;;;;10262873;28;20044;-65
2023/08/22 01:04:07;;;;;;;6.28;5.18;;;;;;;;;;10251564;28;20053;-65
2023/08/22 01:09:18;;;;;;;8.35;5.78;;;;;;;;;;10265129;28;20068;-65
2023/08/22 01:14:17;;;;;;;11.13;6.15;;;;;;;;;;10264707;28;20495;-66
2023/08/22 01:19:17;;;;;;;7.32;5.50;;;;;;;;;;10264388;28;20088;-66
2023/08/22 01:24:13;;;;;;;7.28;5.72;;;;;;;;;;10257627;28;20139;-66
2023/08/22 01:29:10;;;;;;;14.75;7.15;;;;;;;;;;10275848;28;20049;-65
2023/08/22 01:34:19;;;;;;;7.28;5.93;;;;;;;;;;10266961;28;20048;-66
2023/08/22 01:39:17;;;;;;;10.82;5.07;;;;;;;;;;10253866;28;20423;-65
2023/08/22 01:44:13;;;;;;;9.70;5.47;;;;;;;;;;10264102;28;20096;-66
2023/08/22 01:49:09;;;;;;;8.57;5.10;;;;;;;;;;10265972;28;20041;-66
2023/08/22 01:54:05;;;;;;;6.45;5.68;;;;;;;;;;10264158;28;20083;-66
2023/08/22 01:59:02;;;;;;;11.13;5.43;;;;;;;;;;10267531;28;20045;-66
2023/08/22 02:04:03;;;;;;;7.45;5.85;;;;;;;;;;10259007;28;20053;-66
2023/08/22 02:08:59;;;;;;;6.60;5.38;;;;;;;;;;10253102;28;20045;-66
2023/08/22 02:13:56;;;;;;;7.15;5.45;;;;;;;;;;10260472;28;20630;-67
2023/08/22 02:18:52;;;;;;;7.00;5.38;;;;;;;;;;10256674;28;20056;-67
2023/08/22 02:23:49;;;;;;;7.55;5.25;;;;;;;;;;10271199;28;20053;-66
2023/08/22 02:28:45;;;;;;;11.98;5.70;;;;;;;;;;10263140;28;20056;-66
2023/08/22 02:33:41;;;;;;;6.70;5.72;;;;;;;;;;10255856;28;20045;-66
2023/08/22 02:38:38;;;;;;;7.80;5.18;;;;;;;;;;10253799;28;20491;-68
2023/08/22 02:43:34;;;;;;;5.47;4.97;;;;;;;;;;10261302;28;20084;-65
2023/08/22 02:48:31;;;;;;;6.15;5.55;;;;;;;;;;10251179;28;20049;-65
2023/08/22 02:53:28;;;;;;;8.32;5.72;;;;;;;;;;10251721;28;20053;-67
2023/08/22 02:58:24;;;;;;;7.75;5.30;;;;;;;;;;10260229;28;20182;-66
2023/08/22 03:03:20;;;;;;;7.63;5.70;;;;;;;;;;10262930;28;20106;-66
2023/08/22 03:08:17;;;;;;;6.75;5.40;;;;;;;;;;10250041;28;20124;-66
2023/08/22 03:13:13;;;;;;;8.63;5.85;;;;;;;;;;10257739;28;20057;-66
2023/08/22 03:18:10;;;;;;;5.93;5.32;;;;;;;;;;10263755;28;20119;-66
2023/08/22 03:23:06;;;;;;;8.23;5.70;;;;;;;;;;10262838;28;20048;-66
2023/08/22 03:28:03;;;;;;;6.97;5.80;;;;;;;;;;10258478;28;20451;-66
2023/08/22 03:32:59;;;;;;;7.53;5.70;;;;;;;;;;10248457;28;20048;-68
2023/08/22 03:37:57;;;;;;;7.70;5.80;;;;;;;;;;10251558;28;20048;-68
2023/08/22 03:42:54;;;;;;;7.07;5.57;;;;;;;;;;10255126;28;20044;-68
2023/08/22 03:47:50;;;;;;;8.90;5.68;;;;;;;;;;10251156;28;20564;-68
2023/08/22 03:52:46;;;;;;;5.70;5.15;;;;;;;;;;10251840;28;20041;-68
2023/08/22 03:57:43;;;;;;;5.90;5.30;;;;;;;;;;10244314;28;20049;-67
2023/08/22 04:02:39;;;;;;;12.15;6.32;;;;;;;;;;10239923;28;20843;-67
2023/08/22 04:07:36;;;;;;;6.03;5.40;;;;;;;;;;10247956;28;20422;-67
2023/08/22 04:12:32;;;;;;;7.45;6.00;;;;;;;;;;10257823;28;20054;-68
2023/08/22 04:17:28;;;;;;;6.22;5.50;;;;;;;;;;10253710;28;20073;-68
2023/08/22 04:22:25;;;;;;;6.60;5.70;;;;;;;;;;10260202;28;20094;-70
2023/08/22 04:27:21;;;;;;;6.65;5.90;;;;;;;;;;10256920;28;20053;-68
2023/08/22 04:32:18;;;;;;;6.90;5.90;;;;;;;;;;10272508;28;20061;-69
2023/08/22 04:37:14;;;;;;;7.00;6.25;;;;;;;;;;10266616;28;20634;-69
2023/08/22 04:42:10;;;;;;;10.15;5.93;;;;;;;;;;10263411;28;20049;-68
2023/08/22 04:47:06;;;;;;;17.85;6.93;;;;;;;;;;10403323;23;20100;-68
2023/08/22 04:52:03;;;;;;;7.65;6.53;;;;;;;;;;10259451;28;20054;-68
2023/08/22 04:56:59;;;;;;;6.97;6.30;;;;;;;;;;10253907;28;20069;-68
2023/08/22 05:01:56;;;;;;;7.60;6.57;;;;;;;;;;10260596;28;20103;-68
2023/08/22 05:06:52;;;;;;;8.77;6.28;;;;;;;;;;10256203;28;20041;-68
2023/08/22 05:11:49;;;;;;;10.70;7.32;;;;;;;;;;10260060;28;20080;-69
2023/08/22 05:16:45;;;;;;;8.27;7.13;;;;;;;;;;10257900;28;20045;-69
2023/08/22 05:21:42;;;;;;;8.60;7.80;;;;;;;;;;10259447;28;20124;-69
2023/08/22 05:26:38;;;;;;;10.20;7.35;;;;;;;;;;10265206;28;20491;-68
2023/08/22 05:31:34;;;;;;;8.07;7.35;;;;;;;;;;10272404;28;20045;-68
2023/08/22 05:36:31;;;;;;;9.27;7.05;;;;;;;;;;10256519;28;20458;-68
2023/08/22 05:41:27;;;;;;;10.57;7.20;;;;;;;;;;10259472;28;20053;-68
2023/08/22 05:51:35;;;;;;;9.85;7.38;;;;;;;;;;9399199;26;20049;-69
2023/08/22 05:56:31;;;;;;;9.55;7.43;;;;;;;;;;10239042;28;20104;-68
2023/08/22 06:01:28;;;;;;;13.50;7.30;;;;;;;;;;10268145;28;20466;-69
2023/08/22 06:06:24;;;;;;;13.43;7.55;;;;;;;;;;10263239;28;20510;-68
2023/08/22 06:11:21;;;;;;;8.40;7.40;;;;;;;;;;10263066;28;20083;-68
2023/08/22 06:16:17;;;;;;;11.23;7.95;;;;;;;;;;10256386;28;20083;-68
2023/08/22 06:21:13;;;;;;;10.80;8.10;;;;;;;;;;10274704;22;20168;-69
2023/08/22 06:26:10;;;;;;;13.32;7.63;;;;;;;;;;10243201;28;20391;-69
2023/08/22 06:31:07;;;;;;;8.02;7.22;;;;;;;;;;10268961;28;20537;-68
2023/08/22 06:36:03;;;;;;;11.30;9.07;;;;;;;;;;10263575;28;20045;-68
2023/08/22 06:41:07;;;;;;;10.00;7.90;;;;;;;;;;10259827;28;20076;-68
2023/08/22 06:46:03;;;;;;;9.70;7.57;;;;;;;;;;10253021;28;20045;-69
2023/08/22 06:51:00;;;;;;;9.13;6.47;;;;;;;;;;10263993;28;20882;-69
2023/08/22 06:55:56;;;;;;;11.25;7.90;;;;;;;;;;10252215;28;20065;-68
2023/08/22 07:00:52;;;;;;;9.65;6.88;;;;;;;;;;10258842;28;20061;-68
2023/08/22 07:05:50;;;;;;;10.15;7.15;;;;;;;;;;10254680;28;20651;-68
2023/08/22 07:10:47;;;;;;;7.13;6.45;;;;;;;;;;10282129;23;20115;-68
2023/08/22 07:15:43;;;;;;;9.40;6.20;;;;;;;;;;10238828;28;20505;-68
2023/08/22 07:20:40;;;;;;;10.82;6.38;;;;;;;;;;10239155;28;20538;-69
2023/08/22 07:25:36;;;;;;;10.77;6.65;;;;;;;;;;10251042;28;20048;-68
2023/08/22 07:30:33;;;;;;;7.95;6.95;;;;;;;;;;10244777;28;20484;-68
2023/08/22 07:35:33;;;;;;;8.90;5.88;;;;;;;;;;10256869;28;20071;-69
2023/08/22 07:40:30;;;;;;;7.28;6.68;;;;;;;;;;10278722;22;20111;-69
2023/08/22 07:45:27;;;;;;;10.55;7.28;;;;;;;;;;10239341;28;20496;-68
2023/08/22 07:50:24;;;;;;;9.35;6.68;;;;;;;;;;10261742;28;20534;-68
2023/08/22 07:55:22;;;;;;;7.18;6.47;;;;;;;;;;10250820;28;20107;-69
2023/08/22 08:00:18;;;;;;;11.32;6.55;;;;;;;;;;10259313;28;20060;-69
2023/08/22 08:05:14;;;;;;;9.48;6.25;;;;;;;;;;10249010;28;20139;-69
2023/08/22 08:10:11;;;;;;;13.32;7.35;;;;;;;;;;10254331;28;20049;-69
2023/08/22 08:15:07;;;;;;;8.60;6.40;;;;;;;;;;10252613;28;20537;-69
2023/08/22 08:20:04;;;;;;;11.57;6.30;;;;;;;;;;10248021;28;20637;-69
2023/08/22 08:25:02;;;;;;;9.80;6.20;;;;;;;;;;10265024;28;20128;-69
2023/08/22 08:29:59;;;;;;;9.20;6.07;;;;;;;;;;10259972;28;20045;-69
2023/08/22 08:34:55;;;;;;;7.75;6.65;;;;;;;;;;10254562;28;20052;-69
2023/08/22 08:39:51;;;;;;;9.15;6.20;;;;;;;;;;10252908;28;20056;-69
2023/08/22 08:44:48;;;;;;;7.90;6.25;;;;;;;;;;10254738;28;20049;-69
2023/08/22 08:49:44;;;;;;;6.32;5.80;;;;;;;;;;10254118;28;20507;-69
2023/08/22 08:54:41;;;;;;;8.82;7.07;;;;;;;;;;10263982;28;20100;-70
2023/08/22 08:59:40;;;;;;;18.17;7.72;;;;;;;;;;10269772;28;20575;-69
2023/08/22 09:04:37;;;;;;;9.20;6.43;;;;;;;;;;10262678;28;20080;-69
2023/08/22 09:09:36;;;;;;;8.15;6.05;;;;;;;;;;10260202;28;20060;-68
2023/08/22 09:14:33;;;;;;;9.63;8.27;;;;;;;;;;10258761;28;20046;-69
2023/08/22 09:19:33;;;;;;;7.85;6.72;;;;;;;;;;10257206;28;20072;-68
2023/08/22 09:24:30;;;;;;;9.52;6.60;;;;;;;;;;10252497;28;20053;-69
2023/08/22 09:29:27;;;;;;;6.68;5.75;;;;;;;;;;10257740;28;20091;-68
2023/08/22 09:34:24;;;;;;;13.75;6.07;;;;;;;;;;10259603;28;20136;-69
2023/08/22 09:39:21;;;;;;;9.05;6.13;;;;;;;;;;10253781;28;20053;-69
2023/08/22 09:44:20;;;;;;;6.85;5.82;;;;;;;;;;10271236;28;20049;-69
2023/08/22 09:49:17;;;;;;;6.60;5.97;;;;;;;;;;10258493;28;20140;-69
2023/08/22 09:54:14;;;;;;;10.38;6.32;;;;;;;;;;10255752;28;20450;-69
2023/08/22 09:59:14;;;;;;;10.38;6.32;;;;;;;;;;10260842;28;20049;-69
2023/08/22 10:04:12;;;;;;;7.47;6.82;;;;;;;;;;10248977;28;20049;-69
2023/08/22 10:09:10;;;;;;;10.40;7.35;;;;;;;;;;10263475;28;20483;-69
2023/08/22 10:14:10;;;;;;;7.50;6.80;;;;;;;;;;10250094;28;20041;-69
2023/08/22 10:19:08;;;;;;;7.97;6.38;;;;;;;;;;10258391;28;20076;-69
2023/08/22 10:24:05;;;;;;;7.72;6.78;;;;;;;;;;10263411;28;20056;-69
2023/08/22 10:29:14;;;;;;;9.05;6.22;;;;;;;;;;10276787;22;20410;-69
2023/08/22 10:34:10;;;;;;;7.63;6.85;;;;;;;;;;10254832;28;20076;-69
2023/08/22 10:39:07;;;;;;;7.03;6.35;;;;;;;;;;10344716;23;20079;-69
2023/08/22 10:44:04;;;;;;;7.78;6.40;;;;;;;;;;10267107;28;20053;-69
2023/08/22 10:49:03;;;;;;;7.13;6.45;;;;;;;;;;10250398;28;20059;-69
2023/08/22 10:54:14;;;;;;;8.90;6.70;;;;;;;;;;10244727;28;20554;-69
2023/08/22 10:59:11;;;;;;;11.50;6.90;;;;;;;;;;10256303;28;20462;-69
2023/08/22 11:04:08;;;;;;;7.18;6.57;;;;;;;;;;10245253;28;20194;-69
2023/08/22 11:09:05;;;;;;;8.95;6.65;;;;;;;;;;10282981;23;20045;-69
2023/08/22 11:14:01;;;;;;;10.27;6.88;;;;;;;;;;10242398;28;20430;-69
2023/08/22 11:18:58;;;;;;;9.02;6.30;;;;;;;;;;10253149;28;20052;-69
2023/08/22 11:23:56;;;;;;;7.00;6.13;;;;;;;;;;10256270;28;20076;-69
2023/08/22 11:28:52;;;;;;;7.32;6.28;;;;;;;;;;10269033;22;20406;-69
2023/08/22 11:33:49;;;;;;;6.25;5.75;;;;;;;;;;10255628;28;20049;-68
2023/08/22 11:38:47;;;;;;;12.75;7.72;;;;;;;;;;10262165;28;20095;-69
2023/08/22 11:43:45;;;;;;;6.72;6.13;;;;;;;;;;10253573;28;20528;-69
2023/08/22 11:48:42;;;;;;;7.93;6.82;;;;;;;;;;10243972;28;20073;-69
2023/08/22 11:53:38;;;;;;;7.65;6.10;;;;;;;;;;10249754;28;20037;-69
2023/08/22 11:58:35;;;;;;;7.72;6.45;;;;;;;;;;10281669;22;20052;-69
2023/08/22 12:03:43;;;;;;;6.93;6.20;;;;;;;;;;10239213;28;20088;-69
2023/08/22 12:08:40;;;;;;;9.38;6.72;;;;;;;;;;10242368;28;20059;-69
2023/08/22 12:13:36;;;;;;;6.95;6.15;;;;;;;;;;10252951;28;20518;-69
2023/08/22 12:18:34;;;;;;;7.55;6.30;;;;;;;;;;10258933;28;20791;-71
2023/08/22 12:23:31;;;;;;;7.07;6.47;;;;;;;;;;10255093;28;20050;-70
2023/08/22 12:28:27;;;;;;;6.95;6.35;;;;;;;;;;10256097;28;20041;-69
2023/08/22 12:33:23;;;;;;;6.97;6.20;;;;;;;;;;10251455;28;20062;-69
2023/08/22 12:38:20;;;;;;;7.53;6.20;;;;;;;;;;10259821;28;20088;-69
2023/08/22 12:43:16;;;;;;;7.15;5.90;;;;;;;;;;10261813;28;20110;-70
2023/08/22 12:48:12;;;;;;;5.38;4.97;;;;;;;;;;10257091;28;20072;-69
2023/08/22 12:53:09;;;;;;;6.35;5.85;;;;;;;;;;10263014;28;20111;-69
2023/08/22 12:58:05;;;;;;;6.90;6.30;;;;;;;;;;10263866;28;20056;-69
2023/08/22 13:03:02;;;;;;;6.88;6.28;;;;;;;;;;10254484;28;20103;-69
2023/08/22 13:07:58;;;;;;;7.00;5.57;;;;;;;;;;10248348;28;20133;-69
2023/08/22 13:12:55;;;;;;;6.97;5.75;;;;;;;;;;10244946;28;20076;-70
2023/08/22 13:17:52;;;;;;;6.03;5.53;;;;;;;;;;10267891;28;20049;-69
2023/08/22 13:22:48;;;;;;;6.60;5.97;;;;;;;;;;10254984;28;20057;-69
2023/08/22 13:27:45;;;;;;;6.90;5.80;;;;;;;;;;10246134;28;20085;-70
2023/08/22 13:32:41;;;;;;;5.78;5.28;;;;;;;;;;10244489;28;20059;-70
2023/08/22 13:37:38;;;;;;;6.13;5.28;;;;;;;;;;10248335;28;20510;-70
2023/08/22 13:42:35;;;;;;;6.75;5.55;;;;;;;;;;10251454;28;20056;-70
2023/08/22 13:47:31;;;;;;;5.82;5.40;;;;;;;;;;10258300;28;20524;-70
2023/08/22 13:52:27;;;;;;;5.43;5.03;;;;;;;;;;10259819;28;20052;-70
2023/08/22 13:57:26;;;;;;;6.03;5.53;;;;;;;;;;10252401;28;20053;-70
2023/08/22 14:02:22;;;;;;;6.28;5.70;;;;;;;;;;10249198;28;20052;-70
2023/08/22 14:07:18;;;;;;;6.00;5.50;;;;;;;;;;10267900;23;20391;-70
2023/08/22 14:12:14;;;;;;;5.90;5.30;;;;;;;;;;10253509;28;20158;-70
2023/08/22 14:17:11;;;;;;;7.20;5.47;;;;;;;;;;10250886;28;20060;-70
2023/08/22 14:22:07;;;;;;;6.20;5.63;;;;;;;;;;10245600;28;20087;-69
2023/08/22 14:27:03;;;;;;;6.43;5.47;;;;;;;;;;10253565;28;20060;-69
2023/08/22 14:32:00;;;;;;;5.32;4.93;;;;;;;;;;10267636;28;20418;-70
2023/08/22 14:36:56;;;;;;;5.32;4.85;;;;;;;;;;10254674;28;20501;-70
2023/08/22 14:42:04;;;;;;;6.68;5.07;;;;;;;;;;10240266;28;20052;-70
2023/08/22 14:47:00;;;;;;;6.07;5.57;;;;;;;;;;10337721;22;20670;-69
2023/08/22 14:51:57;;;;;;;5.47;5.07;;;;;;;;;;10253677;28;20052;-69
2023/08/22 14:56:53;;;;;;;5.40;4.65;;;;;;;;;;10256964;28;20065;-70
2023/08/22 15:01:50;;;;;;;5.47;4.97;;;;;;;;;;10236041;28;20510;-69
2023/08/22 15:06:46;;;;;;;5.65;4.97;;;;;;;;;;10245783;28;20132;-69
2023/08/22 15:11:42;;;;;;;6.15;5.65;;;;;;;;;;10246078;28;20059;-69
2023/08/22 15:22:10;;;;;;;5.53;5.13;;;;;;;;;;10185445;26;20036;-69
2023/08/22 15:27:07;;;;;;;6.97;5.43;;;;;;;;;;10230486;28;20041;-70
2023/08/22 15:32:07;;;;;;;6.15;5.55;;;;;;;;;;10249810;28;20359;-70
2023/08/22 15:37:03;;;;;;;8.15;5.50;;;;;;;;;;10243172;28;20557;-69
2023/08/22 15:42:00;;;;;;;5.85;5.40;;;;;;;;;;10249432;28;20156;-68
2023/08/22 15:46:56;;;;;;;5.82;5.32;;;;;;;;;;10241629;28;20049;-72
2023/08/22 15:51:52;;;;;;;5.32;4.90;;;;;;;;;;10237973;28;20426;-68
2023/08/22 15:56:49;;;;;;;6.18;5.68;;;;;;;;;;10255249;28;20044;-69
2023/08/22 16:01:45;;;;;;;6.70;6.03;;;;;;;;;;10251364;28;20478;-70
2023/08/22 16:06:41;;;;;;;6.10;5.60;;;;;;;;;;10241316;28;20106;-70
2023/08/22 16:11:39;;;;;;;5.78;5.28;;;;;;;;;;10240170;28;20476;-67
2023/08/22 16:16:35;;;;;;;6.10;5.55;;;;;;;;;;10239211;28;20111;-70
2023/08/22 16:21:31;;;;;;;6.53;5.95;;;;;;;;;;10239609;28;20586;-71
2023/08/22 16:26:28;;;;;;;4.70;4.30;;;;;;;;;;10213431;28;20499;-70
2023/08/22 16:31:27;;;;;;;5.18;4.75;;;;;;;;;;10243982;28;20110;-71
2023/08/22 16:36:23;;;;;;;5.88;5.38;;;;;;;;;;10249959;28;20063;-71
2023/08/22 16:41:20;;;;;;;5.30;4.90;;;;;;;;;;10253410;28;20057;-71
2023/08/22 16:46:17;;;;;;;5.00;4.60;;;;;;;;;;10254745;28;20064;-71
2023/08/22 16:51:13;;;;;;;5.20;4.70;;;;;;;;;;10289246;23;20524;-71
2023/08/22 16:56:10;;;;;;;5.50;5.10;;;;;;;;;;10254085;28;20076;-69
2023/08/22 17:01:07;;;;;;;5.30;4.80;;;;;;;;;;10234009;23;20522;-71
2023/08/22 17:06:03;;;;;;;4.78;4.47;;;;;;;;;;10213051;28;20132;-71
2023/08/22 17:11:11;;;;;;;5.35;4.85;;;;;;;;;;10181564;28;20078;-71
2023/08/22 17:16:08;;;;;;;5.82;5.07;;;;;;;;;;10183723;28;20050;-71
2023/08/22 17:21:10;;;;;;;5.43;4.93;;;;;;;;;;10182991;28;20435;-69
2023/08/22 17:26:07;;;;;;;5.25;4.72;;;;;;;;;;10181138;28;20061;-69
2023/08/22 17:31:07;;;;;;;6.70;4.60;;;;;;;;;;10179882;28;20054;-70
2023/08/22 17:36:04;;;;;;;4.70;4.30;;;;;;;;;;10183525;28;20089;-70
2023/08/22 17:41:02;;;;;;;5.88;4.47;;;;;;;;;;10186103;28;20082;-69
2023/08/22 17:45:59;;;;;;;4.90;4.40;;;;;;;;;;10188801;28;20050;-70
2023/08/22 17:50:56;;;;;;;5.03;4.40;;;;;;;;;;10189135;28;20054;-70
2023/08/22 17:55:56;;;;;;;4.65;4.25;;;;;;;;;;10189808;28;20504;-70
2023/08/22 18:00:52;;;;;;;4.93;4.43;;;;;;;;;;10184998;28;20430;-70
2023/08/22 18:05:53;;;;;;;6.13;4.63;;;;;;;;;;10183275;28;20504;-70
2023/08/22 18:10:50;;;;;;;9.63;4.60;;;;;;;;;;10187467;28;20427;-69
2023/08/22 18:15:56;;;;;;;5.80;4.68;;;;;;;;;;10190691;28;20053;-69
2023/08/22 18:21:05;;;;;;;5.95;4.70;;;;;;;;;;10264546;23;20052;-70
2023/08/22 18:26:03;;;;;;;8.38;5.32;;;;;;;;;;10253210;28;20041;-70
2023/08/22 18:31:00;;;;;;;7.65;6.85;;;;;;;;;;10250184;28;20072;-69
2023/08/22 18:35:57;;;;;;;7.22;6.28;;;;;;;;;;10263082;28;20135;-69
2023/08/22 18:40:53;;;;;;;7.68;6.40;;;;;;;;;;10246264;28;20051;-69
2023/08/22 18:45:50;;;;;;;7.82;6.05;;;;;;;;;;10242183;28;20049;-70
2023/08/22 18:50:55;;;;;;;7.97;6.15;;;;;;;;;;10242111;28;20067;-69
2023/08/22 18:55:52;;;;;;;6.95;6.25;;;;;;;;;;10244590;28;20045;-69
2023/08/22 19:00:48;;;;;;;7.18;5.57;;;;;;;;;;10246044;28;20146;-70
2023/08/22 19:05:45;;;;;;;6.25;5.60;;;;;;;;;;10257236;28;20139;-70
2023/08/22 19:10:44;;;;;;;6.28;5.57;;;;;;;;;;10246194;28;20103;-70
2023/08/22 19:15:41;;;;;;;7.50;5.78;;;;;;;;;;10248833;28;20053;-70
2023/08/22 19:20:38;;;;;;;7.07;6.00;;;;;;;;;;10252354;28;20052;-70
2023/08/22 19:25:35;;;;;;;8.10;6.38;;;;;;;;;;10249715;28;20045;-69
2023/08/22 19:30:31;;;;;;;6.68;6.07;;;;;;;;;;10258747;28;20056;-69
2023/08/22 19:35:28;;;;;;;9.20;6.47;;;;;;;;;;10253786;28;20053;-69
2023/08/22 19:40:24;;;;;;;7.57;6.32;;;;;;;;;;10245341;28;20067;-69
2023/08/22 19:45:21;;;;;;;8.07;6.88;;;;;;;;;;10249808;28;20850;-70
2023/08/22 19:50:21;;;;;;;7.60;6.60;;;;;;;;;;10266781;23;20053;-70
2023/08/22 19:55:18;;;;;;;7.65;6.95;;;;;;;;;;10250669;28;20065;-70
2023/08/22 20:00:16;;;;;;;7.82;6.75;;;;;;;;;;10256378;28;20058;-69
2023/08/22 20:05:13;;;;;;;11.07;7.53;;;;;;;;;;10244157;28;20068;-69
2023/08/22 20:10:10;;;;;;;9.32;7.82;;;;;;;;;;10247638;28;20056;-70
2023/08/22 20:15:06;;;;;;;9.73;7.85;;;;;;;;;;10248811;28;20049;-69
2023/08/22 20:20:03;;;;;;;9.63;6.93;;;;;;;;;;10244034;28;20072;-69
2023/08/22 20:24:59;;;;;;;9.73;7.50;;;;;;;;;;10242913;28;20058;-69
2023/08/22 20:29:56;;;;;;;11.50;7.05;;;;;;;;;;10287462;23;20057;-70
2023/08/22 20:34:52;;;;;;;7.97;7.18;;;;;;;;;;10250475;28;20059;-70
2023/08/22 20:39:49;;;;;;;9.88;6.90;;;;;;;;;;10243977;28;20042;-70
2023/08/22 20:44:45;;;;;;;9.38;7.93;;;;;;;;;;10238210;28;20046;-70
2023/08/22 20:49:42;;;;;;;8.55;6.85;;;;;;;;;;10248851;28;20049;-69
2023/08/22 20:54:38;;;;;;;8.45;7.10;;;;;;;;;;10255943;28;20041;-66
2023/08/22 20:59:35;;;;;;;9.75;6.65;;;;;;;;;;10255611;28;20049;-66
2023/08/22 21:04:32;;;;;;;8.02;6.50;;;;;;;;;;10254239;28;20049;-66
2023/08/22 21:09:28;;;;;;;8.45;7.35;;;;;;;;;;10245913;28;20079;-66
2023/08/22 21:14:25;;;;;;;9.45;7.32;;;;;;;;;;10250014;28;20482;-67
2023/08/22 21:19:22;;;;;;;9.48;6.85;;;;;;;;;;10269396;28;20052;-67
2023/08/22 21:24:18;;;;;;;11.40;7.50;;;;;;;;;;10263282;28;20535;-67
2023/08/22 21:29:15;;;;;;;9.80;6.90;;;;;;;;;;10247902;28;20525;-67
2023/08/22 21:34:11;;;;;;;13.20;8.80;;;;;;;;;;10269593;28;20048;-68
2023/08/22 21:39:07;;;;;;;12.18;10.07;;;;;;;;;;10286825;23;20045;-68
2023/08/22 21:44:04;;;;;;;11.63;9.48;;;;;;;;;;10251554;28;20056;-66
2023/08/22 21:49:00;;;;;;;12.20;8.50;;;;;;;;;;10249805;28;20075;-66
2023/08/22 21:53:56;;;;;;;10.25;7.45;;;;;;;;;;10260562;28;20064;-66
2023/08/22 21:58:52;;;;;;;9.52;6.93;;;;;;;;;;10261389;28;20060;-66
2023/08/22 22:03:49;;;;;;;10.13;6.28;;;;;;;;;;10268915;28;20052;-66
2023/08/22 22:08:45;;;;;;;7.68;6.43;;;;;;;;;;10245210;28;20088;-66
2023/08/22 22:13:41;;;;;;;9.57;6.30;;;;;;;;;;10265299;28;20102;-66
2023/08/22 22:18:38;;;;;;;8.70;5.90;;;;;;;;;;10255617;28;20518;-66
2023/08/22 22:23:34;;;;;;;6.40;5.80;;;;;;;;;;10249168;28;20757;-67
2023/08/22 22:28:31;;;;;;;8.90;6.40;;;;;;;;;;10259525;28;20075;-67
2023/08/22 22:33:27;;;;;;;9.80;6.28;;;;;;;;;;10252768;28;20076;-66
2023/08/22 22:38:23;;;;;;;7.60;6.70;;;;;;;;;;10262354;28;20525;-66
2023/08/22 22:43:20;;;;;;;6.82;6.13;;;;;;;;;;10253087;28;20076;-67
2023/08/22 22:48:16;;;;;;;10.25;6.25;;;;;;;;;;10368411;22;20667;-67
2023/08/22 22:53:13;;;;;;;8.05;6.43;;;;;;;;;;10253940;28;20059;-67
2023/08/22 22:58:09;;;;;;;7.63;6.05;;;;;;;;;;10268241;28;20048;-67
2023/08/22 23:03:06;;;;;;;7.78;6.35;;;;;;;;;;10248213;28;20068;-67
2023/08/22 23:08:02;;;;;;;7.30;6.55;;;;;;;;;;10257937;28;20102;-68
2023/08/22 23:12:58;;;;;;;9.32;6.38;;;;;;;;;;10253008;28;20486;-66
2023/08/22 23:17:55;;;;;;;12.27;7.35;;;;;;;;;;10263684;28;20254;-67
2023/08/22 23:22:51;;;;;;;8.80;6.35;;;;;;;;;;10256937;28;20064;-67
2023/08/22 23:27:47;;;;;;;7.75;7.05;;;;;;;;;;10256911;28;20057;-68
2023/08/22 23:32:44;;;;;;;8.18;6.93;;;;;;;;;;10265288;28;20048;-66
2023/08/22 23:37:41;;;;;;;8.40;7.57;;;;;;;;;;10261783;28;20049;-65
2023/08/22 23:42:37;;;;;;;10.27;7.50;;;;;;;;;;10268761;28;20445;-67
2023/08/22 23:47:33;;;;;;;10.55;8.38;;;;;;;;;;10252985;28;20057;-67
2023/08/22 23:52:30;;;;;;;11.63;8.05;;;;;;;;;;10266022;28;20038;-68
2023/08/22 23:57:26;;;;;;;9.35;8.23;;;;;;;;;;10253890;28;20079;-67
